createdAt,value
2022-12-31T00:00:49.792Z,11.97
2022-12-31T00:01:49.767Z,11.97
2022-12-31T00:02:49.811Z,11.99
2022-12-31T00:03:49.673Z,11.99
2022-12-31T00:04:49.632Z,12.00
2022-12-31T00:05:49.637Z,12.02
2022-12-31T00:06:49.647Z,11.99
2022-12-31T00:07:49.661Z,12.00
2022-12-31T00:08:49.601Z,12.02
2022-12-31T00:09:49.590Z,12.02
2022-12-31T00:10:49.559Z,12.03
2022-12-31T00:11:49.582Z,12.04
2022-12-31T00:12:49.555Z,12.03
2022-12-31T00:13:49.555Z,12.07
2022-12-31T00:14:49.535Z,12.06
2022-12-31T00:15:49.530Z,12.07
2022-12-31T00:16:49.688Z,12.07
2022-12-31T00:17:49.496Z,12.10
2022-12-31T00:18:49.492Z,12.09
2022-12-31T00:19:49.480Z,12.09
2022-12-31T00:20:49.448Z,12.12
2022-12-31T00:21:49.463Z,12.12
2022-12-31T00:22:49.427Z,12.13
2022-12-31T00:23:49.427Z,12.13
2022-12-31T00:24:49.421Z,12.15
2022-12-31T00:25:49.419Z,12.15
2022-12-31T00:26:49.409Z,12.17
2022-12-31T00:27:49.401Z,12.15
2022-12-31T00:28:49.387Z,12.18
2022-12-31T00:29:49.383Z,12.20
2022-12-31T00:30:49.378Z,12.20
2022-12-31T00:31:49.340Z,12.20
2022-12-31T00:32:49.323Z,12.21
2022-12-31T00:33:49.332Z,12.21
2022-12-31T00:34:49.315Z,12.22
2022-12-31T00:35:49.330Z,12.24
2022-12-31T00:36:49.399Z,12.24
2022-12-31T00:37:49.287Z,12.24
2022-12-31T00:38:49.269Z,12.27
2022-12-31T00:39:49.263Z,12.28
2022-12-31T00:40:49.253Z,12.29
2022-12-31T00:41:49.304Z,12.29
2022-12-31T00:42:49.211Z,12.31
2022-12-31T00:43:49.214Z,12.31
2022-12-31T00:44:49.196Z,12.31
2022-12-31T00:45:49.263Z,12.31
2022-12-31T00:46:49.237Z,12.35
2022-12-31T00:47:49.183Z,12.36
2022-12-31T00:48:49.154Z,12.37
2022-12-31T00:49:49.143Z,12.36
2022-12-31T00:50:49.137Z,12.36
2022-12-31T00:51:49.130Z,12.37
2022-12-31T00:52:49.098Z,12.39
2022-12-31T00:53:49.126Z,12.42
2022-12-31T00:54:49.090Z,12.42
2022-12-31T00:55:49.086Z,12.43
2022-12-31T00:56:49.102Z,12.43
2022-12-31T00:57:49.068Z,12.47
2022-12-31T00:58:49.045Z,12.46
2022-12-31T00:59:49.058Z,12.46
2022-12-31T01:00:49.028Z,12.47
2022-12-31T01:01:49.075Z,12.46
2022-12-31T01:02:49.100Z,12.45
2022-12-31T01:03:49.021Z,12.46
2022-12-31T01:04:48.970Z,12.46
2022-12-31T01:05:48.993Z,12.45
2022-12-31T01:06:48.955Z,12.45
2022-12-31T01:07:48.967Z,12.45
2022-12-31T01:08:48.946Z,12.47
2022-12-31T01:09:48.960Z,12.47
2022-12-31T01:10:48.905Z,12.47
2022-12-31T01:11:48.926Z,12.47
2022-12-31T01:12:48.912Z,12.47
2022-12-31T01:13:48.894Z,12.49
2022-12-31T01:14:48.907Z,12.49
2022-12-31T01:15:48.957Z,12.49
2022-12-31T01:16:48.845Z,12.50
2022-12-31T01:17:48.846Z,12.53
2022-12-31T01:18:48.817Z,12.53
2022-12-31T01:19:48.826Z,12.53
2022-12-31T01:20:48.820Z,12.55
2022-12-31T01:21:48.795Z,12.54
2022-12-31T01:22:48.779Z,12.55
2022-12-31T01:23:48.785Z,12.55
2022-12-31T01:24:48.758Z,12.55
2022-12-31T01:25:48.771Z,12.57
2022-12-31T01:26:48.764Z,12.58
2022-12-31T01:27:48.739Z,12.60
2022-12-31T01:28:48.712Z,12.62
2022-12-31T01:29:48.721Z,12.64
2022-12-31T01:30:48.703Z,12.67
2022-12-31T01:31:48.708Z,12.64
2022-12-31T01:32:48.666Z,12.67
2022-12-31T01:33:48.701Z,12.68
2022-12-31T01:34:48.644Z,12.72
2022-12-31T01:35:48.659Z,12.70
2022-12-31T01:36:48.622Z,12.73
2022-12-31T01:37:48.650Z,12.73
2022-12-31T01:38:48.649Z,12.78
2022-12-31T01:39:48.615Z,12.78
2022-12-31T01:40:48.581Z,12.78
2022-12-31T01:41:48.585Z,12.78
2022-12-31T01:42:48.554Z,12.78
2022-12-31T01:43:48.594Z,12.78
2022-12-31T01:44:48.560Z,12.78
2022-12-31T01:45:48.564Z,12.80
2022-12-31T01:46:48.525Z,12.80
2022-12-31T01:47:48.521Z,12.86
2022-12-31T01:48:48.494Z,12.85
2022-12-31T01:49:48.511Z,12.85
2022-12-31T01:50:48.485Z,12.90
2022-12-31T01:51:48.489Z,12.90
2022-12-31T01:52:48.461Z,12.90
2022-12-31T01:53:48.454Z,12.94
2022-12-31T01:54:48.447Z,12.93
2022-12-31T01:55:48.439Z,12.94
2022-12-31T01:56:48.460Z,12.93
2022-12-31T01:57:48.419Z,12.97
2022-12-31T01:58:48.402Z,12.95
2022-12-31T01:59:48.394Z,12.97
2022-12-31T02:00:48.374Z,13.00
2022-12-31T02:01:48.586Z,12.98
2022-12-31T02:02:48.449Z,13.00
2022-12-31T02:03:48.340Z,13.01
2022-12-31T02:04:48.326Z,13.00
2022-12-31T02:05:48.325Z,12.98
2022-12-31T02:06:48.535Z,13.01
2022-12-31T02:07:48.313Z,13.01
2022-12-31T02:08:48.281Z,13.01
2022-12-31T02:09:48.284Z,13.01
2022-12-31T02:10:48.252Z,13.01
2022-12-31T02:11:48.536Z,13.01
2022-12-31T02:12:48.235Z,13.04
2022-12-31T02:13:49.782Z,13.04
2022-12-31T02:14:48.214Z,13.05
2022-12-31T02:15:48.238Z,13.08
2022-12-31T02:16:48.289Z,13.08
2022-12-31T02:17:48.207Z,13.12
2022-12-31T02:18:48.171Z,13.11
2022-12-31T02:19:48.176Z,13.12
2022-12-31T02:20:48.161Z,13.12
2022-12-31T02:21:48.152Z,13.12
2022-12-31T02:22:48.135Z,13.12
2022-12-31T02:23:48.119Z,13.11
2022-12-31T02:24:48.095Z,13.13
2022-12-31T02:25:48.108Z,13.13
2022-12-31T02:26:48.079Z,13.15
2022-12-31T02:27:48.094Z,13.16
2022-12-31T02:28:48.070Z,13.16
2022-12-31T02:29:48.077Z,13.18
2022-12-31T07:00:57.418Z,14.50
2022-12-31T07:01:58.474Z,14.47
2022-12-31T07:02:58.333Z,14.47
2022-12-31T07:03:58.272Z,14.48
2022-12-31T07:04:58.264Z,14.51
2022-12-31T07:05:58.296Z,14.48
2022-12-31T07:06:58.238Z,14.51
2022-12-31T07:07:58.281Z,14.51
2022-12-31T07:08:58.210Z,14.53
2022-12-31T07:09:58.221Z,14.50
2022-12-31T07:10:58.194Z,14.53
2022-12-31T07:11:58.198Z,14.50
2022-12-31T07:12:58.160Z,14.50
2022-12-31T07:13:58.182Z,14.51
2022-12-31T07:14:58.177Z,14.51
2022-12-31T07:15:58.241Z,14.53
2022-12-31T07:16:58.164Z,14.53
2022-12-31T07:17:58.130Z,14.51
2022-12-31T07:18:58.103Z,14.51
2022-12-31T07:19:58.167Z,14.53
2022-12-31T07:20:58.078Z,14.54
2022-12-31T07:21:58.075Z,14.55
2022-12-31T07:22:58.064Z,14.53
2022-12-31T07:23:58.050Z,14.54
2022-12-31T07:24:58.043Z,14.58
2022-12-31T07:25:58.060Z,14.58
2022-12-31T07:26:58.050Z,14.59
2022-12-31T07:27:58.029Z,14.59
2022-12-31T07:28:57.997Z,14.59
2022-12-31T07:29:58.023Z,14.59
2022-12-31T07:30:58.033Z,14.58
2022-12-31T07:31:57.988Z,14.60
2022-12-31T07:32:57.949Z,14.59
2022-12-31T07:33:57.955Z,14.59
2022-12-31T07:34:57.949Z,14.60
2022-12-31T07:35:57.948Z,14.59
2022-12-31T07:36:57.898Z,14.63
2022-12-31T07:37:57.913Z,14.65
2022-12-31T07:38:57.877Z,14.68
2022-12-31T07:39:57.889Z,14.66
2022-12-31T07:40:58.640Z,14.68
2022-12-31T07:41:57.862Z,14.68
2022-12-31T07:42:57.847Z,14.66
2022-12-31T07:43:57.841Z,14.69
2022-12-31T07:44:57.815Z,14.69
2022-12-31T07:45:57.852Z,14.70
2022-12-31T07:46:57.841Z,14.72
2022-12-31T07:48:02.518Z,14.73
2022-12-31T07:48:57.788Z,14.77
2022-12-31T07:49:57.778Z,14.78
2022-12-31T07:50:57.826Z,14.81
2022-12-31T07:51:57.768Z,14.81
2022-12-31T07:52:57.723Z,14.81
2022-12-31T07:53:57.749Z,14.81
2022-12-31T07:54:57.707Z,14.81
2022-12-31T07:55:57.711Z,14.82
2022-12-31T07:56:57.719Z,14.84
2022-12-31T07:57:57.723Z,14.84
2022-12-31T07:58:57.670Z,14.86
2022-12-31T07:59:57.683Z,14.84
2022-12-31T08:00:57.758Z,14.85
2022-12-31T08:01:57.729Z,14.84
2022-12-31T08:02:57.665Z,14.85
2022-12-31T08:03:57.643Z,14.84
2022-12-31T08:04:57.605Z,14.84
2022-12-31T08:05:57.605Z,14.84
2022-12-31T08:06:57.588Z,14.82
2022-12-31T08:07:57.609Z,14.82
2022-12-31T08:08:57.562Z,14.81
2022-12-31T08:09:57.565Z,14.82
2022-12-31T08:10:57.531Z,14.79
2022-12-31T08:11:57.569Z,14.81
2022-12-31T08:12:57.569Z,14.79
2022-12-31T08:13:57.512Z,14.81
2022-12-31T08:14:57.500Z,14.79
2022-12-31T08:15:57.548Z,14.79
2022-12-31T08:16:57.491Z,14.78
2022-12-31T08:17:57.501Z,14.81
2022-12-31T08:18:57.481Z,14.79
2022-12-31T08:19:57.449Z,14.79
2022-12-31T08:20:57.420Z,14.77
2022-12-31T08:21:57.433Z,14.77
2022-12-31T08:22:57.456Z,14.78
2022-12-31T08:23:57.407Z,14.78
2022-12-31T08:24:57.372Z,14.78
2022-12-31T08:25:57.424Z,14.79
2022-12-31T08:26:57.367Z,14.79
2022-12-31T08:27:57.359Z,14.81
2022-12-31T08:28:57.356Z,14.78
2022-12-31T08:29:57.350Z,14.78
2022-12-31T08:30:57.309Z,14.78
2022-12-31T08:31:57.372Z,14.78
2022-12-31T08:32:57.302Z,14.78
2022-12-31T08:34:00.721Z,14.78
2022-12-31T08:34:57.286Z,14.77
2022-12-31T08:35:57.268Z,14.77
2022-12-31T08:36:57.259Z,14.73
2022-12-31T08:37:57.243Z,14.77
2022-12-31T08:38:57.254Z,14.72
2022-12-31T08:39:57.238Z,14.77
2022-12-31T08:40:57.261Z,14.77
2022-12-31T08:41:57.239Z,14.77
2022-12-31T08:42:57.189Z,14.73
2022-12-31T08:43:57.186Z,14.77
2022-12-31T08:44:57.186Z,14.73
2022-12-31T08:45:57.255Z,14.77
2022-12-31T08:46:57.150Z,14.73
2022-12-31T08:48:00.014Z,14.72
2022-12-31T08:48:57.117Z,14.72
2022-12-31T08:49:57.137Z,14.72
2022-12-31T08:50:57.105Z,14.70
2022-12-31T08:51:57.126Z,14.70
2022-12-31T08:52:57.073Z,14.72
2022-12-31T08:53:57.084Z,14.72
2022-12-31T08:54:57.052Z,14.72
2022-12-31T08:55:57.059Z,14.72
2022-12-31T08:56:57.022Z,14.73
2022-12-31T08:57:57.067Z,14.72
2022-12-31T08:58:57.015Z,14.72
2022-12-31T08:59:57.053Z,14.72
2022-12-31T09:00:57.182Z,14.70
2022-12-31T09:01:57.090Z,14.72
2022-12-31T09:02:56.967Z,14.70
2022-12-31T09:03:57.033Z,14.72
2022-12-31T09:04:56.973Z,14.72
2022-12-31T09:05:56.941Z,14.73
2022-12-31T09:06:56.918Z,14.72
2022-12-31T09:07:56.931Z,14.72
2022-12-31T09:08:56.957Z,14.72
2022-12-31T09:09:56.924Z,14.70
2022-12-31T09:10:56.898Z,14.70
2022-12-31T09:11:56.885Z,14.68
2022-12-31T09:12:56.875Z,14.69
2022-12-31T09:13:56.871Z,14.70
2022-12-31T09:14:56.886Z,14.70
2022-12-31T09:15:56.889Z,14.70
2022-12-31T09:16:56.864Z,14.72
2022-12-31T09:17:56.811Z,14.73
2022-12-31T09:18:56.808Z,14.72
2022-12-31T09:19:56.804Z,14.70
2022-12-31T09:20:56.779Z,14.72
2022-12-31T09:21:56.776Z,14.73
2022-12-31T09:22:56.749Z,14.73
2022-12-31T09:23:56.752Z,14.73
2022-12-31T09:24:56.751Z,14.72
2022-12-31T09:25:56.734Z,14.72
2022-12-31T09:26:56.734Z,14.73
2022-12-31T09:27:56.748Z,14.70
2022-12-31T09:28:56.744Z,14.77
2022-12-31T09:29:56.865Z,14.78
2022-12-31T09:30:56.687Z,14.78
2022-12-31T09:31:56.764Z,14.79
2022-12-31T09:33:00.860Z,14.79
2022-12-31T09:33:56.645Z,14.79
2022-12-31T09:34:56.643Z,14.81
2022-12-31T09:35:56.645Z,14.81
2022-12-31T09:36:56.591Z,14.81
2022-12-31T09:37:56.597Z,14.81
2022-12-31T09:38:56.578Z,14.79
2022-12-31T09:39:56.576Z,14.81
2022-12-31T09:40:56.548Z,14.82
2022-12-31T09:41:56.580Z,14.85
2022-12-31T09:42:56.550Z,14.84
2022-12-31T09:44:00.953Z,14.84
2022-12-31T09:44:56.517Z,14.84
2022-12-31T09:45:56.542Z,14.86
2022-12-31T09:46:56.486Z,14.88
2022-12-31T09:47:56.486Z,14.86
2022-12-31T09:48:56.479Z,14.86
2022-12-31T09:49:56.479Z,14.85
2022-12-31T09:50:56.482Z,14.85
2022-12-31T09:51:56.456Z,14.85
2022-12-31T09:52:56.442Z,14.85
2022-12-31T09:53:56.445Z,14.88
2022-12-31T09:54:56.425Z,14.86
2022-12-31T09:55:56.396Z,14.85
2022-12-31T09:56:59.184Z,14.88
2022-12-31T09:57:56.387Z,14.86
2022-12-31T09:58:56.364Z,14.85
2022-12-31T09:59:56.363Z,14.85
2022-12-31T10:00:56.551Z,14.88
2022-12-31T10:01:56.444Z,14.88
2022-12-31T10:02:56.393Z,14.88
2022-12-31T10:03:56.354Z,14.88
2022-12-31T10:04:56.287Z,14.89
2022-12-31T10:05:56.296Z,14.88
2022-12-31T10:06:56.281Z,14.88
2022-12-31T10:07:56.331Z,14.86
2022-12-31T10:08:56.276Z,14.88
2022-12-31T10:09:56.251Z,14.89
2022-12-31T10:10:56.242Z,14.91
2022-12-31T10:11:56.231Z,14.89
2022-12-31T10:12:56.195Z,14.89
2022-12-31T10:13:56.219Z,14.91
2022-12-31T10:14:56.198Z,14.94
2022-12-31T10:15:56.199Z,14.94
2022-12-31T10:16:56.240Z,14.96
2022-12-31T10:17:56.189Z,14.97
2022-12-31T10:18:56.145Z,14.97
2022-12-31T10:19:56.191Z,14.99
2022-12-31T10:20:56.121Z,15.00
2022-12-31T10:21:56.117Z,14.99
2022-12-31T10:22:56.092Z,14.99
2022-12-31T10:23:56.091Z,15.02
2022-12-31T10:24:56.109Z,15.03
2022-12-31T10:25:56.113Z,15.03
2022-12-31T10:26:56.056Z,15.03
2022-12-31T10:27:56.061Z,15.03
2022-12-31T10:28:56.057Z,15.06
2022-12-31T10:29:56.034Z,15.07
2022-12-31T10:30:56.085Z,15.06
2022-12-31T10:31:56.061Z,15.10
2022-12-31T10:32:56.014Z,15.07
2022-12-31T10:33:56.017Z,15.10
2022-12-31T10:34:55.979Z,15.10
2022-12-31T10:35:56.001Z,15.07
2022-12-31T10:36:55.956Z,15.09
2022-12-31T10:37:55.962Z,15.09
2022-12-31T10:38:55.924Z,15.10
2022-12-31T10:39:55.925Z,15.11
2022-12-31T10:40:55.904Z,15.14
2022-12-31T10:41:55.917Z,15.15
2022-12-31T10:42:55.889Z,15.15
2022-12-31T10:43:55.912Z,15.17
2022-12-31T10:44:55.856Z,15.18
2022-12-31T10:45:55.934Z,15.19
2022-12-31T10:46:55.849Z,15.22
2022-12-31T10:47:55.841Z,15.22
2022-12-31T10:48:55.822Z,15.24
2022-12-31T10:49:55.829Z,15.27
2022-12-31T10:50:55.796Z,15.28
2022-12-31T10:51:55.812Z,15.28
2022-12-31T10:52:55.761Z,15.28
2022-12-31T10:53:55.779Z,15.29
2022-12-31T10:54:55.746Z,15.31
2022-12-31T10:55:55.759Z,15.29
2022-12-31T10:56:55.755Z,15.35
2022-12-31T10:58:01.898Z,15.35
2022-12-31T10:58:55.706Z,15.35
2022-12-31T10:59:55.707Z,15.40
2022-12-31T11:00:55.703Z,15.40
2022-12-31T11:01:55.742Z,15.42
2022-12-31T11:02:55.824Z,15.42
2022-12-31T11:03:55.735Z,15.40
2022-12-31T11:04:55.655Z,15.44
2022-12-31T11:05:55.648Z,15.43
2022-12-31T11:06:55.705Z,15.46
2022-12-31T11:07:55.657Z,15.43
2022-12-31T11:08:55.611Z,15.43
2022-12-31T11:09:55.628Z,15.44
2022-12-31T11:10:55.584Z,15.46
2022-12-31T11:11:55.570Z,15.44
2022-12-31T11:12:55.579Z,15.46
2022-12-31T11:13:55.544Z,15.46
2022-12-31T11:14:55.544Z,15.47
2022-12-31T11:15:55.629Z,15.49
2022-12-31T11:16:55.548Z,15.52
2022-12-31T11:17:55.494Z,15.52
2022-12-31T11:18:55.514Z,15.49
2022-12-31T11:19:55.475Z,15.52
2022-12-31T11:20:55.486Z,15.54
2022-12-31T11:21:55.463Z,15.55
2022-12-31T11:22:55.470Z,15.58
2022-12-31T11:23:55.441Z,15.59
2022-12-31T11:24:55.446Z,15.59
2022-12-31T11:25:55.423Z,15.59
2022-12-31T11:26:55.488Z,15.61
2022-12-31T11:27:55.407Z,15.61
2022-12-31T11:28:55.427Z,15.59
2022-12-31T11:29:55.374Z,15.62
2022-12-31T11:30:55.506Z,15.62
2022-12-31T11:31:55.375Z,15.64
2022-12-31T11:32:55.354Z,15.65
2022-12-31T11:33:55.313Z,15.65
2022-12-31T11:34:55.335Z,15.68
2022-12-31T11:35:55.317Z,15.73
2022-12-31T11:36:55.352Z,15.72
2022-12-31T11:37:55.287Z,15.75
2022-12-31T11:38:55.289Z,15.77
2022-12-31T11:39:55.294Z,15.76
2022-12-31T11:40:55.265Z,15.76
2022-12-31T11:41:55.233Z,15.76
2022-12-31T11:42:55.244Z,15.79
2022-12-31T11:43:55.223Z,15.80
2022-12-31T11:44:55.234Z,15.80
2022-12-31T11:45:55.207Z,15.84
2022-12-31T11:46:55.252Z,15.83
2022-12-31T11:48:29.250Z,15.83
2022-12-31T11:48:55.199Z,15.82
2022-12-31T11:49:55.162Z,15.83
2022-12-31T11:50:55.157Z,15.84
2022-12-31T11:51:55.132Z,15.86
2022-12-31T11:52:55.134Z,15.90
2022-12-31T11:53:55.111Z,15.90
2022-12-31T11:54:55.127Z,15.91
2022-12-31T11:55:55.148Z,15.92
2022-12-31T11:56:55.082Z,15.92
2022-12-31T11:57:55.073Z,15.92
2022-12-31T11:58:55.150Z,15.92
2022-12-31T11:59:55.073Z,15.94
2022-12-31T12:00:55.057Z,15.95
2022-12-31T12:01:55.021Z,15.95
2022-12-31T12:02:55.100Z,15.98
2022-12-31T12:03:55.049Z,15.97
2022-12-31T12:04:55.024Z,16.00
2022-12-31T12:05:54.985Z,15.98
2022-12-31T12:06:55.061Z,15.98
2022-12-31T12:07:54.969Z,16.01
2022-12-31T12:08:54.978Z,16.01
2022-12-31T12:09:54.936Z,16.02
2022-12-31T12:10:54.967Z,16.04
2022-12-31T12:11:54.926Z,16.02
2022-12-31T12:12:54.928Z,16.04
2022-12-31T12:13:54.893Z,16.05
2022-12-31T12:14:54.916Z,16.05
2022-12-31T12:15:54.914Z,16.08
2022-12-31T12:16:57.861Z,16.09
2022-12-31T12:17:54.877Z,16.10
2022-12-31T12:18:54.856Z,16.12
2022-12-31T12:19:54.847Z,16.16
2022-12-31T12:20:54.841Z,16.16
2022-12-31T12:21:54.850Z,16.21
2022-12-31T12:22:54.804Z,16.23
2022-12-31T12:23:54.798Z,16.26
2022-12-31T12:24:54.784Z,16.29
2022-12-31T12:25:54.793Z,16.31
2022-12-31T12:26:54.765Z,16.31
2022-12-31T12:27:54.759Z,16.33
2022-12-31T12:28:54.749Z,16.35
2022-12-31T12:29:54.729Z,16.39
2022-12-31T12:30:54.727Z,16.39
2022-12-31T12:31:54.692Z,16.41
2022-12-31T12:32:54.701Z,16.42
2022-12-31T12:33:54.685Z,16.42
2022-12-31T12:34:55.089Z,16.43
2022-12-31T12:35:54.654Z,16.42
2022-12-31T12:36:54.667Z,16.43
2022-12-31T12:37:54.626Z,16.42
2022-12-31T12:38:54.641Z,16.42
2022-12-31T12:39:54.647Z,16.46
2022-12-31T12:40:54.624Z,16.43
2022-12-31T12:41:54.589Z,16.43
2022-12-31T12:42:54.584Z,16.43
2022-12-31T12:43:54.562Z,16.43
2022-12-31T12:44:54.576Z,16.46
2022-12-31T12:45:54.536Z,16.49
2022-12-31T12:46:54.585Z,16.43
2022-12-31T12:47:54.518Z,16.43
2022-12-31T12:48:54.524Z,16.47
2022-12-31T12:49:54.518Z,16.43
2022-12-31T12:50:54.518Z,16.43
2022-12-31T12:51:54.484Z,16.43
2022-12-31T12:52:59.141Z,16.46
2022-12-31T12:53:54.479Z,16.43
2022-12-31T12:54:54.465Z,16.43
2022-12-31T12:55:54.443Z,16.47
2022-12-31T12:56:54.465Z,16.49
2022-12-31T12:57:54.409Z,16.46
2022-12-31T12:58:54.440Z,16.47
2022-12-31T12:59:54.413Z,16.49
2022-12-31T13:00:54.423Z,16.47
2022-12-31T13:01:54.556Z,16.47
2022-12-31T13:02:54.434Z,16.49
2022-12-31T13:04:32.542Z,16.50
2022-12-31T13:04:54.344Z,16.51
2022-12-31T13:05:54.324Z,16.51
2022-12-31T13:06:54.320Z,16.53
2022-12-31T13:07:54.456Z,16.51
2022-12-31T13:08:54.330Z,16.56
2022-12-31T13:09:54.336Z,16.54
2022-12-31T13:10:54.280Z,16.56
2022-12-31T13:11:54.257Z,16.56
2022-12-31T13:13:54.253Z,16.53
2022-12-31T13:14:54.284Z,16.53
2022-12-31T13:15:54.288Z,16.54
2022-12-31T13:16:54.214Z,16.51
2022-12-31T13:17:58.651Z,16.51
2022-12-31T13:18:54.188Z,16.53
2022-12-31T13:19:54.239Z,16.50
2022-12-31T13:20:54.171Z,16.50
2022-12-31T13:21:54.158Z,16.53
2022-12-31T13:22:54.146Z,16.53
2022-12-31T13:23:54.119Z,16.50
2022-12-31T13:24:54.158Z,16.53
2022-12-31T13:25:54.140Z,16.54
2022-12-31T13:26:54.119Z,16.53
2022-12-31T13:27:54.172Z,16.53
2022-12-31T13:28:54.094Z,16.56
2022-12-31T13:29:54.058Z,16.54
2022-12-31T13:30:54.089Z,16.57
2022-12-31T13:31:54.089Z,16.57
2022-12-31T13:32:54.060Z,16.58
2022-12-31T13:33:54.033Z,16.60
2022-12-31T13:34:54.008Z,16.61
2022-12-31T13:35:53.991Z,16.60
2022-12-31T13:36:54.013Z,16.60
2022-12-31T13:37:53.998Z,16.60
2022-12-31T13:38:54.019Z,16.57
2022-12-31T13:39:53.940Z,16.58
2022-12-31T13:40:53.964Z,16.58
2022-12-31T13:41:53.928Z,16.58
2022-12-31T13:42:53.944Z,16.58
2022-12-31T13:43:53.924Z,16.60
2022-12-31T13:44:53.927Z,16.58
2022-12-31T13:45:54.023Z,16.58
2022-12-31T13:46:54.075Z,16.58
2022-12-31T13:47:53.917Z,16.58
2022-12-31T13:48:53.875Z,16.61
2022-12-31T13:49:53.842Z,16.60
2022-12-31T13:50:53.848Z,16.58
2022-12-31T13:51:53.816Z,16.58
2022-12-31T13:52:53.837Z,16.58
2022-12-31T13:53:53.797Z,16.57
2022-12-31T13:54:53.794Z,16.60
2022-12-31T13:55:56.979Z,16.57
2022-12-31T13:56:53.779Z,16.56
2022-12-31T13:57:53.748Z,16.56
2022-12-31T13:58:53.791Z,16.54
2022-12-31T13:59:53.739Z,16.54
2022-12-31T14:00:53.765Z,16.54
2022-12-31T14:01:53.906Z,16.56
2022-12-31T14:02:53.848Z,16.56
2022-12-31T14:03:53.683Z,16.53
2022-12-31T14:04:53.730Z,16.53
2022-12-31T14:05:53.674Z,16.47
2022-12-31T14:06:53.677Z,16.49
2022-12-31T14:07:53.650Z,16.46
2022-12-31T14:08:53.658Z,16.43
2022-12-31T14:09:53.637Z,16.46
2022-12-31T14:10:53.657Z,16.47
2022-12-31T14:11:53.608Z,16.49
2022-12-31T14:12:53.630Z,16.47
2022-12-31T14:13:53.575Z,16.47
2022-12-31T14:14:53.595Z,16.46
2022-12-31T14:15:53.548Z,16.43
2022-12-31T14:16:53.652Z,16.42
2022-12-31T14:17:53.542Z,16.43
2022-12-31T14:18:53.537Z,16.38
2022-12-31T14:19:53.514Z,16.38
2022-12-31T14:20:53.511Z,16.36
2022-12-31T14:21:53.482Z,16.35
2022-12-31T14:22:53.532Z,16.35
2022-12-31T14:23:53.472Z,16.32
2022-12-31T14:24:53.504Z,16.31
2022-12-31T14:25:53.444Z,16.32
2022-12-31T14:26:53.482Z,16.32
2022-12-31T14:27:53.461Z,16.32
2022-12-31T14:28:53.424Z,16.31
2022-12-31T14:29:53.400Z,16.32
2022-12-31T14:30:53.408Z,16.31
2022-12-31T14:31:53.518Z,16.33
2022-12-31T14:32:53.415Z,16.32
2022-12-31T14:33:53.370Z,16.32
2022-12-31T14:34:53.357Z,16.29
2022-12-31T14:35:53.367Z,16.29
2022-12-31T14:36:53.395Z,16.29
2022-12-31T14:37:53.366Z,16.29
2022-12-31T14:38:53.352Z,16.28
2022-12-31T14:39:53.292Z,16.26
2022-12-31T14:40:53.307Z,16.24
2022-12-31T14:41:53.273Z,16.24
2022-12-31T14:42:53.277Z,16.24
2022-12-31T14:43:53.364Z,16.24
2022-12-31T14:44:53.257Z,16.24
2022-12-31T14:45:53.259Z,16.21
2022-12-31T14:46:53.310Z,16.17
2022-12-31T14:47:53.199Z,16.21
2022-12-31T14:48:53.219Z,16.15
2022-12-31T14:49:53.202Z,16.12
2022-12-31T14:50:53.199Z,16.12
2022-12-31T14:51:53.165Z,16.10
2022-12-31T14:52:53.188Z,16.10
2022-12-31T14:53:53.177Z,16.10
2022-12-31T14:54:53.154Z,16.09
2022-12-31T14:55:53.134Z,16.09
2022-12-31T14:56:53.289Z,16.12
2022-12-31T14:58:53.093Z,16.10
2022-12-31T14:59:53.106Z,16.09
2022-12-31T15:00:53.095Z,16.12
2022-12-31T15:01:53.232Z,16.10
2022-12-31T15:02:53.098Z,16.04
2022-12-31T15:03:53.061Z,16.04
2022-12-31T15:04:53.020Z,16.01
2022-12-31T15:05:53.054Z,16.00
2022-12-31T15:06:53.351Z,16.00
2022-12-31T15:07:52.996Z,15.98
2022-12-31T15:08:52.998Z,15.97
2022-12-31T15:09:52.991Z,15.97
2022-12-31T15:10:52.961Z,15.95
2022-12-31T15:11:52.979Z,15.95
2022-12-31T15:12:52.949Z,15.94
2022-12-31T15:13:52.938Z,15.92
2022-12-31T15:14:52.931Z,15.90
2022-12-31T15:15:52.954Z,15.88
2022-12-31T15:16:52.986Z,15.88
2022-12-31T15:17:52.883Z,15.84
2022-12-31T15:18:52.887Z,15.86
2022-12-31T15:19:52.876Z,15.86
2022-12-31T15:20:52.857Z,15.86
2022-12-31T15:21:52.843Z,15.82
2022-12-31T15:22:52.988Z,15.82
2022-12-31T15:23:52.823Z,15.77
2022-12-31T15:24:52.795Z,15.77
2022-12-31T15:25:52.888Z,15.75
2022-12-31T15:26:52.805Z,15.75
2022-12-31T15:27:52.799Z,15.75
2022-12-31T15:28:52.790Z,15.76
2022-12-31T15:29:52.754Z,15.75
2022-12-31T15:30:52.793Z,15.76
2022-12-31T15:31:52.735Z,15.73
2022-12-31T15:32:52.728Z,15.75
2022-12-31T15:33:52.739Z,15.72
2022-12-31T15:34:53.511Z,15.73
2022-12-31T15:35:52.705Z,15.68
2022-12-31T15:36:52.675Z,15.68
2022-12-31T15:37:52.670Z,15.67
2022-12-31T15:38:52.658Z,15.65
2022-12-31T15:39:52.667Z,15.67
2022-12-31T15:40:52.642Z,15.64
2022-12-31T15:42:52.618Z,15.62
2022-12-31T15:43:52.631Z,15.62
2022-12-31T15:44:52.587Z,15.61
2022-12-31T15:45:52.611Z,15.59
2022-12-31T15:46:52.567Z,15.58
2022-12-31T15:47:52.568Z,15.58
2022-12-31T15:48:53.954Z,15.55
2022-12-31T15:49:52.564Z,15.54
2022-12-31T15:50:52.525Z,15.54
2022-12-31T15:51:52.527Z,15.52
2022-12-31T15:52:52.513Z,15.51
2022-12-31T15:53:52.518Z,15.47
2022-12-31T15:54:52.473Z,15.47
2022-12-31T15:55:52.523Z,15.46
2022-12-31T15:56:52.453Z,15.42
2022-12-31T15:57:52.442Z,15.42
2022-12-31T15:58:52.427Z,15.37
2022-12-31T15:59:52.430Z,15.36
2022-12-31T16:00:52.416Z,15.37
2022-12-31T16:01:53.200Z,15.37
2022-12-31T16:02:52.626Z,15.36
2022-12-31T16:03:52.466Z,15.35
2022-12-31T16:04:52.413Z,15.36
2022-12-31T16:05:52.432Z,15.35
2022-12-31T16:06:52.427Z,15.33
2022-12-31T16:07:52.463Z,15.35
2022-12-31T16:08:52.369Z,15.31
2022-12-31T16:09:52.409Z,15.31
2022-12-31T16:10:52.368Z,15.33
2022-12-31T16:11:52.374Z,15.33
2022-12-31T16:12:52.326Z,15.29
2022-12-31T16:13:52.341Z,15.31
2022-12-31T16:14:52.322Z,15.31
2022-12-31T16:15:52.367Z,15.27
2022-12-31T16:16:52.293Z,15.28
2022-12-31T16:17:52.301Z,15.27
2022-12-31T16:18:52.277Z,15.24
2022-12-31T16:19:52.272Z,15.24
2022-12-31T16:20:52.241Z,15.25
2022-12-31T16:21:52.284Z,15.24
2022-12-31T16:22:52.234Z,15.21
2022-12-31T16:23:52.234Z,15.22
2022-12-31T16:25:28.443Z,15.24
2022-12-31T16:25:52.207Z,15.25
2022-12-31T16:26:52.260Z,15.24
2022-12-31T16:27:52.223Z,15.25
2022-12-31T16:28:52.154Z,15.25
2022-12-31T16:29:55.814Z,15.28
2022-12-31T16:30:52.185Z,15.25
2022-12-31T16:31:52.149Z,15.25
2022-12-31T16:32:52.114Z,15.25
2022-12-31T16:33:52.142Z,15.22
2022-12-31T16:34:52.100Z,15.24
2022-12-31T16:35:52.095Z,15.24
2022-12-31T16:36:52.072Z,15.24
2022-12-31T16:37:52.103Z,15.22
2022-12-31T16:38:52.072Z,15.25
2022-12-31T16:39:52.080Z,15.25
2022-12-31T16:40:52.025Z,15.27
2022-12-31T16:41:52.027Z,15.25
2022-12-31T16:42:52.022Z,15.25
2022-12-31T16:43:52.042Z,15.25
2022-12-31T16:44:51.997Z,15.25
2022-12-31T16:45:51.990Z,15.25
2022-12-31T16:46:52.010Z,15.24
2022-12-31T16:47:52.025Z,15.22
2022-12-31T16:48:51.935Z,15.21
2022-12-31T16:49:51.974Z,15.18
2022-12-31T16:50:51.919Z,15.17
2022-12-31T16:51:51.932Z,15.18
2022-12-31T16:52:51.889Z,15.15
2022-12-31T16:53:51.914Z,15.15
2022-12-31T16:54:51.867Z,15.14
2022-12-31T16:55:51.880Z,15.14
2022-12-31T16:56:51.860Z,15.10
2022-12-31T16:57:51.855Z,15.10
2022-12-31T16:58:51.878Z,15.09
2022-12-31T16:59:51.840Z,15.06
2022-12-31T17:00:51.804Z,15.06
2022-12-31T17:01:52.009Z,15.04
2022-12-31T17:02:51.869Z,15.06
2022-12-31T17:03:51.792Z,15.03
2022-12-31T17:04:56.066Z,15.03
2022-12-31T17:05:51.770Z,15.00
2022-12-31T17:06:51.749Z,14.97
2022-12-31T17:07:51.800Z,15.00
2022-12-31T17:08:51.720Z,15.02
2022-12-31T17:09:51.757Z,14.97
2022-12-31T17:10:51.709Z,14.97
2022-12-31T17:11:51.703Z,14.94
2022-12-31T17:13:51.704Z,14.91
2022-12-31T17:14:51.675Z,14.91
2022-12-31T17:15:51.691Z,14.91
2022-12-31T17:16:56.179Z,14.91
2022-12-31T17:17:51.666Z,14.91
2022-12-31T17:18:51.650Z,14.92
2022-12-31T17:19:51.616Z,14.88
2022-12-31T17:20:51.613Z,14.88
2022-12-31T17:21:51.589Z,14.91
2022-12-31T17:22:51.576Z,14.86
2022-12-31T17:23:51.596Z,14.86
2022-12-31T17:24:51.543Z,14.88
2022-12-31T17:25:51.551Z,14.88
2022-12-31T17:26:51.601Z,14.86